Time;durP1;ratioP1;P1;durP2;ratioP2;P2;SDS_P1;SDS_P2;PMS_P1;PMS_P2;Temp;Humidity;BMP_temperature;BMP_pressure;BME280_temperature;BME280_humidity;BME280_pressure;Samples;Min_cycle;Max_cycle;Signal;HPM_P1;HPM_P2
2022/04/16 00:01:09;;;;;;;;;;;12.00;77.80;;;;;;5055402;28;20398;-89
2022/04/16 00:03:35;;;;;;;;;;;12.10;78.10;;;;;;5055507;28;19965;-89
2022/04/16 00:06:01;;;;;;;;;;;12.10;78.70;;;;;;5055323;28;19913;-89
2022/04/16 00:08:27;;;;;;;;;;;12.20;79.00;;;;;;5055129;28;19916;-89
2022/04/16 00:10:53;;;;;;;;;;;12.10;78.70;;;;;;5055288;28;19916;-89
2022/04/16 00:13:19;;;;;;;;;;;12.00;77.80;;;;;;5054933;28;19908;-88
2022/04/16 00:15:46;;;;;;;;;;;12.00;77.50;;;;;;5054921;28;20015;-89
2022/04/16 00:18:12;;;;;;;;;;;12.10;77.40;;;;;;5055132;28;19999;-89
2022/04/16 00:20:38;;;;;;;;;;;12.00;77.90;;;;;;5055094;28;20385;-88
2022/04/16 00:23:04;;;;;;;;;;;11.80;79.30;;;;;;5054850;28;20440;-89
2022/04/16 00:25:32;;;;;;;;;;;11.70;80.80;;;;;;5054912;28;19951;-89
2022/04/16 00:27:59;;;;;;;;;;;11.60;81.00;;;;;;5054874;28;19966;-89
2022/04/16 00:30:24;;;;;;;;;;;11.60;82.00;;;;;;5054852;28;20385;-89
2022/04/16 00:32:55;;;;;;;;;;;11.40;81.60;;;;;;5054547;28;19909;-88
2022/04/16 00:35:24;;;;;;;;;;;11.40;82.20;;;;;;5054769;28;19913;-89
2022/04/16 00:37:49;;;;;;;;;;;11.40;82.60;;;;;;5054755;28;19963;-89
2022/04/16 00:40:15;;;;;;;;;;;11.40;82.90;;;;;;5054700;28;19912;-89
2022/04/16 00:42:43;;;;;;;;;;;11.50;83.10;;;;;;5054736;28;19921;-88
2022/04/16 00:45:09;;;;;;;;;;;11.50;83.30;;;;;;5054377;28;19909;-88
2022/04/16 00:47:36;;;;;;;;;;;11.60;83.00;;;;;;5054515;28;20282;-89
2022/04/16 00:50:03;;;;;;;;;;;11.60;82.70;;;;;;5054574;28;20003;-89
2022/04/16 00:52:28;;;;;;;;;;;11.70;82.50;;;;;;5054416;28;19909;-89
2022/04/16 00:54:54;;;;;;;;;;;11.80;81.80;;;;;;5054220;28;19909;-89
2022/04/16 00:57:20;;;;;;;;;;;11.70;81.50;;;;;;5054325;28;19974;-89
2022/04/16 00:59:46;;;;;;;;;;;11.70;81.20;;;;;;5054109;28;19953;-89
2022/04/16 01:02:11;;;;;;;;;;;11.70;81.10;;;;;;5054281;28;19919;-88
2022/04/16 01:04:37;;;;;;;;;;;11.60;81.20;;;;;;5054193;28;19909;-89
2022/04/16 01:07:03;;;;;;;;;;;11.50;81.00;;;;;;5054230;28;19913;-89
2022/04/16 01:09:29;;;;;;;;;;;11.50;81.00;;;;;;5054130;28;19909;-89
2022/04/16 01:11:55;;;;;;;;;;;11.60;80.80;;;;;;5054100;28;19913;-89
2022/04/16 01:14:21;;;;;;;;;;;11.60;80.90;;;;;;5053819;28;20394;-88
2022/04/16 01:16:47;;;;;;;;;;;11.50;80.50;;;;;;5053782;28;19920;-89
2022/04/16 01:19:12;;;;;;;;;;;11.40;80.60;;;;;;5053971;28;19916;-89
2022/04/16 01:21:39;;;;;;;;;;;11.30;80.70;;;;;;5053175;28;19955;-89
2022/04/16 01:24:05;;;;;;;;;;;11.00;81.60;;;;;;5053550;28;19919;-88
2022/04/16 01:26:31;;;;;;;;;;;10.90;82.40;;;;;;5053828;28;20007;-89
2022/04/16 01:28:56;;;;;;;;;;;10.90;82.90;;;;;;5053760;28;19909;-88
2022/04/16 01:31:22;;;;;;;;;;;10.80;83.10;;;;;;5053728;28;19954;-89
2022/04/16 01:33:47;;;;;;;;;;;10.90;83.20;;;;;;5053510;28;19920;-89
2022/04/16 01:36:13;;;;;;;;;;;10.90;83.00;;;;;;5053563;28;19913;-89
2022/04/16 01:38:39;;;;;;;;;;;11.00;82.80;;;;;;5053561;28;19909;-89
2022/04/16 01:41:04;;;;;;;;;;;11.10;82.80;;;;;;5053546;28;19912;-89
2022/04/16 01:43:30;;;;;;;;;;;11.10;82.60;;;;;;5053057;28;19913;-88
2022/04/16 01:45:56;;;;;;;;;;;11.30;82.60;;;;;;5053713;28;19933;-89
2022/04/16 01:48:27;;;;;;;;;;;11.30;82.40;;;;;;5052195;28;20371;-89
2022/04/16 01:50:53;;;;;;;;;;;11.40;82.00;;;;;;5053362;28;19970;-89
2022/04/16 01:53:19;;;;;;;;;;;11.50;81.30;;;;;;5053391;28;19924;-88
2022/04/16 01:55:45;;;;;;;;;;;11.40;80.60;;;;;;5053194;28;20317;-89
2022/04/16 01:58:11;;;;;;;;;;;11.50;80.60;;;;;;5053265;28;20362;-89
2022/04/16 02:00:37;;;;;;;;;;;11.50;80.40;;;;;;5053400;28;19962;-89
2022/04/16 02:03:02;;;;;;;;;;;11.40;79.80;;;;;;5053243;28;20382;-88
2022/04/16 02:05:28;;;;;;;;;;;11.40;79.70;;;;;;5053246;28;20158;-89
2022/04/16 02:07:54;;;;;;;;;;;11.30;79.80;;;;;;5053162;28;19909;-89
2022/04/16 02:10:19;;;;;;;;;;;11.30;80.50;;;;;;5052750;28;19913;-89
2022/04/16 02:12:45;;;;;;;;;;;11.30;81.00;;;;;;5053138;28;19959;-89
2022/04/16 02:15:11;;;;;;;;;;;11.30;81.10;;;;;;5052827;28;19921;-89
2022/04/16 02:17:37;;;;;;;;;;;11.40;80.90;;;;;;5053033;28;20012;-89
2022/04/16 02:20:09;;;;;;;;;;;11.40;80.90;;;;;;5052864;28;20410;-89
2022/04/16 02:22:42;;;;;;;;;;;11.30;80.90;;;;;;5053036;28;19909;-88
2022/04/16 02:25:08;;;;;;;;;;;11.10;80.90;;;;;;5053006;28;19909;-88
2022/04/16 02:27:34;;;;;;;;;;;11.00;81.00;;;;;;5052962;28;19909;-89
2022/04/16 02:32:08;;;;;;;;;;;10.90;81.10;;;;;;5110756;27;20286;-89
2022/04/16 02:34:33;;;;;;;;;;;10.80;81.30;;;;;;5111090;28;19919;-89
2022/04/16 02:36:59;;;;;;;;;;;10.70;81.50;;;;;;5110980;28;19907;-88
2022/04/16 02:39:25;;;;;;;;;;;10.70;81.30;;;;;;5110990;28;19999;-89
2022/04/16 02:41:51;;;;;;;;;;;10.60;80.50;;;;;;5094693;28;19913;-89
2022/04/16 02:47:06;;;;;;;;;;;10.70;80.40;;;;;;5090475;28;19915;-88
2022/04/16 02:49:33;;;;;;;;;;;10.60;82.80;;;;;;5090432;28;20432;-89
2022/04/16 02:51:59;;;;;;;;;;;10.50;84.60;;;;;;5106897;28;19966;-89
2022/04/16 02:54:25;;;;;;;;;;;10.60;86.00;;;;;;5110685;28;19908;-88
2022/04/16 02:56:51;;;;;;;;;;;10.60;86.20;;;;;;5110567;28;19931;-88
2022/04/16 02:59:16;;;;;;;;;;;10.60;85.60;;;;;;5110598;28;19908;-89
2022/04/16 03:01:42;;;;;;;;;;;10.50;85.30;;;;;;5095970;28;19916;-88
2022/04/16 03:04:07;;;;;;;;;;;10.60;85.20;;;;;;5090391;28;19987;-88
2022/04/16 03:06:33;;;;;;;;;;;10.70;84.50;;;;;;5090067;28;20434;-89
2022/04/16 03:08:58;;;;;;;;;;;10.70;83.50;;;;;;5089978;28;20440;-89
2022/04/16 03:11:24;;;;;;;;;;;10.70;83.50;;;;;;5090021;28;19963;-88
2022/04/16 03:13:49;;;;;;;;;;;10.80;83.00;;;;;;5089763;28;19970;-89
2022/04/16 03:18:59;;;;;;;;;;;10.70;82.80;;;;;;5089908;28;19919;-88
2022/04/16 03:21:24;;;;;;;;;;;10.70;83.20;;;;;;5089505;28;19916;-89
2022/04/16 03:23:50;;;;;;;;;;;10.70;83.20;;;;;;5089718;28;19908;-89
2022/04/16 03:26:15;;;;;;;;;;;10.70;83.40;;;;;;5089670;28;19909;-88
2022/04/16 03:28:41;;;;;;;;;;;10.80;83.10;;;;;;5089664;28;19908;-88
2022/04/16 03:31:07;;;;;;;;;;;10.80;83.10;;;;;;5089076;28;19920;-88
2022/04/16 03:33:32;;;;;;;;;;;10.80;83.00;;;;;;5089766;28;19931;-89
2022/04/16 03:35:58;;;;;;;;;;;10.90;82.00;;;;;;5089573;28;20021;-88
2022/04/16 03:38:24;;;;;;;;;;;10.80;80.50;;;;;;5089276;28;19909;-89
2022/04/16 03:40:50;;;;;;;;;;;10.80;80.40;;;;;;5089278;28;20407;-88
2022/04/16 03:43:18;;;;;;;;;;;10.80;80.90;;;;;;5077131;28;19909;-88
2022/04/16 03:45:44;;;;;;;;;;;10.80;82.00;;;;;;5075855;28;19908;-88
2022/04/16 03:48:10;;;;;;;;;;;10.80;82.30;;;;;;5075782;28;19916;-89
2022/04/16 03:50:35;;;;;;;;;;;10.80;82.40;;;;;;5075489;28;19916;-89
2022/04/16 03:53:01;;;;;;;;;;;10.80;82.20;;;;;;5075771;28;20201;-89
2022/04/16 04:00:59;;;;;;;;;;;10.90;83.30;;;;;;5055848;28;19924;-89
2022/04/16 04:03:25;;;;;;;;;;;10.80;85.20;;;;;;5055512;28;19909;-88
2022/04/16 04:05:53;;;;;;;;;;;10.80;86.50;;;;;;5055511;28;19913;-89
2022/04/16 04:10:39;;;;;;;;;;;10.70;86.40;;;;;;5110924;27;19912;-88
2022/04/16 04:13:05;;;;;;;;;;;10.70;84.60;;;;;;5111018;28;20011;-89
2022/04/16 04:15:30;;;;;;;;;;;10.60;86.10;;;;;;5110991;28;19908;-89
2022/04/16 04:17:57;;;;;;;;;;;10.60;86.10;;;;;;5111031;28;19934;-89
2022/04/16 04:20:23;;;;;;;;;;;10.70;85.50;;;;;;5093356;28;19919;-89
2022/04/16 04:22:48;;;;;;;;;;;10.60;83.60;;;;;;5090788;28;19913;-88
2022/04/16 04:25:14;;;;;;;;;;;10.60;83.10;;;;;;5089160;28;20320;-89
2022/04/16 04:27:40;;;;;;;;;;;10.70;83.50;;;;;;5090456;28;20372;-89
2022/04/16 04:30:05;;;;;;;;;;;10.70;84.30;;;;;;5090477;28;20388;-89
2022/04/16 04:32:31;;;;;;;;;;;10.70;84.70;;;;;;5090247;28;20334;-89
2022/04/16 04:34:57;;;;;;;;;;;10.70;84.80;;;;;;5090593;28;19908;-89
2022/04/16 04:37:22;;;;;;;;;;;10.70;84.80;;;;;;5090220;28;19909;-89
2022/04/16 04:39:48;;;;;;;;;;;10.60;84.90;;;;;;5090556;28;19974;-88
2022/04/16 04:42:21;;;;;;;;;;;10.60;85.20;;;;;;5090145;28;20285;-89
2022/04/16 04:44:47;;;;;;;;;;;10.60;85.50;;;;;;5090116;28;20001;-89
2022/04/16 04:47:12;;;;;;;;;;;10.60;85.80;;;;;;5090041;28;19947;-89
2022/04/16 04:49:38;;;;;;;;;;;10.60;86.40;;;;;;5098863;28;19984;-89
2022/04/16 04:52:04;;;;;;;;;;;10.60;85.60;;;;;;5110538;28;19909;-89
2022/04/16 04:54:29;;;;;;;;;;;10.50;85.30;;;;;;5110020;28;19920;-89
2022/04/16 04:56:55;;;;;;;;;;;10.40;85.20;;;;;;5110162;28;19955;-89
2022/04/16 04:59:20;;;;;;;;;;;10.30;85.20;;;;;;5103341;28;19912;-89
2022/04/16 05:01:46;;;;;;;;;;;10.30;85.30;;;;;;5089768;28;20279;-88
2022/04/16 05:04:11;;;;;;;;;;;10.30;85.50;;;;;;5089740;28;19940;-89
2022/04/16 05:06:37;;;;;;;;;;;10.40;85.60;;;;;;5089662;28;19908;-88
2022/04/16 05:09:02;;;;;;;;;;;10.50;85.60;;;;;;5093055;28;20271;-89
2022/04/16 05:11:28;;;;;;;;;;;10.60;86.00;;;;;;5109966;28;19908;-89
2022/04/16 05:13:53;;;;;;;;;;;10.70;86.00;;;;;;5109900;28;19908;-88
2022/04/16 05:16:19;;;;;;;;;;;10.70;85.80;;;;;;5109885;28;20282;-88
2022/04/16 05:18:45;;;;;;;;;;;10.60;85.60;;;;;;5108500;28;19908;-89
2022/04/16 05:21:10;;;;;;;;;;;10.60;85.60;;;;;;5080485;28;19913;-88
2022/04/16 05:23:39;;;;;;;;;;;10.40;86.30;;;;;;5075853;28;19916;-89
2022/04/16 05:26:05;;;;;;;;;;;10.40;86.80;;;;;;5075774;28;19908;-89
2022/04/16 05:28:31;;;;;;;;;;;10.40;87.20;;;;;;5075711;28;19915;-89
2022/04/16 05:30:58;;;;;;;;;;;10.50;86.70;;;;;;5094554;28;19913;-89
2022/04/16 05:36:08;;;;;;;;;;;10.80;86.10;;;;;;5096224;28;19977;-89
2022/04/16 05:38:34;;;;;;;;;;;10.80;85.60;;;;;;5095865;28;20358;-89
2022/04/16 05:40:59;;;;;;;;;;;10.90;85.00;;;;;;5076283;28;19919;-89
2022/04/16 05:43:25;;;;;;;;;;;11.10;84.40;;;;;;5075359;28;19914;-89
2022/04/16 05:45:51;;;;;;;;;;;11.10;83.80;;;;;;5075525;28;19908;-89
2022/04/16 05:48:17;;;;;;;;;;;11.30;82.70;;;;;;5075377;28;19948;-89
2022/04/16 05:50:42;;;;;;;;;;;11.40;81.80;;;;;;5091906;28;19951;-89
2022/04/16 05:53:09;;;;;;;;;;;11.40;81.00;;;;;;5095550;28;19986;-89
2022/04/16 05:55:34;;;;;;;;;;;11.50;81.80;;;;;;5077457;28;20342;-89
2022/04/16 05:58:01;;;;;;;;;;;11.60;82.00;;;;;;5082476;28;19962;-89
2022/04/16 06:00:27;;;;;;;;;;;11.70;82.30;;;;;;5064758;28;20000;-89
2022/04/16 06:02:53;;;;;;;;;;;11.70;82.30;;;;;;5075921;28;19998;-88
2022/04/16 06:05:18;;;;;;;;;;;11.80;81.30;;;;;;5058124;28;20367;-89
2022/04/16 06:07:44;;;;;;;;;;;11.80;80.20;;;;;;5060550;28;19912;-89
2022/04/16 06:10:10;;;;;;;;;;;11.90;80.40;;;;;;5057710;28;19975;-89
2022/04/16 06:12:36;;;;;;;;;;;11.90;80.40;;;;;;5058088;28;20007;-89
2022/04/16 06:15:01;;;;;;;;;;;12.00;80.60;;;;;;5070470;28;19998;-89
2022/04/16 06:17:27;;;;;;;;;;;12.20;80.90;;;;;;5066506;28;19951;-89
2022/04/16 06:19:52;;;;;;;;;;;12.40;82.60;;;;;;5065700;28;19959;-88
2022/04/16 06:22:19;;;;;;;;;;;12.40;83.20;;;;;;5065699;28;19947;-89
2022/04/16 06:24:44;;;;;;;;;;;12.60;82.60;;;;;;5070206;28;19912;-89
2022/04/16 06:27:10;;;;;;;;;;;12.80;82.30;;;;;;5073450;28;19939;-89
2022/04/16 06:29:35;;;;;;;;;;;12.90;81.90;;;;;;5069788;28;20381;-88
2022/04/16 06:32:01;;;;;;;;;;;13.10;81.60;;;;;;5058737;28;19913;-89
2022/04/16 06:34:27;;;;;;;;;;;13.30;81.00;;;;;;5054200;28;19913;-89
2022/04/16 06:36:53;;;;;;;;;;;13.40;79.40;;;;;;5070015;28;19913;-89
2022/04/16 06:39:18;;;;;;;;;;;13.60;78.20;;;;;;5065532;28;19924;-89
2022/04/16 06:41:44;;;;;;;;;;;13.80;76.90;;;;;;5071440;28;20000;-89
2022/04/16 06:44:09;;;;;;;;;;;13.90;76.00;;;;;;5074201;28;20018;-89
2022/04/16 06:46:35;;;;;;;;;;;14.20;76.30;;;;;;5073925;28;19966;-89
2022/04/16 06:49:00;;;;;;;;;;;14.30;77.20;;;;;;5074070;28;19916;-89
2022/04/16 06:51:26;;;;;;;;;;;14.50;77.20;;;;;;5072965;28;20409;-89
2022/04/16 06:53:52;;;;;;;;;;;14.70;77.00;;;;;;5073872;28;20462;-89
2022/04/16 06:56:17;;;;;;;;;;;14.80;76.80;;;;;;5073845;28;20355;-89
2022/04/16 06:58:43;;;;;;;;;;;14.90;76.30;;;;;;5077928;28;20322;-89
2022/04/16 07:01:08;;;;;;;;;;;15.10;76.10;;;;;;5059712;28;19948;-89
2022/04/16 07:03:34;;;;;;;;;;;15.30;75.30;;;;;;5062871;28;19954;-89
2022/04/16 07:05:59;;;;;;;;;;;15.40;74.80;;;;;;5063947;28;20328;-89
2022/04/16 07:09:12;;;;;;;;;;;15.90;73.70;;;;;;5099984;27;20289;-89
2022/04/16 07:11:37;;;;;;;;;;;16.30;71.10;;;;;;5073195;28;19913;-89
2022/04/16 07:14:03;;;;;;;;;;;16.60;70.60;;;;;;5075379;28;19912;-89
2022/04/16 07:16:28;;;;;;;;;;;16.80;69.00;;;;;;5072374;28;20007;-89
2022/04/16 07:18:54;;;;;;;;;;;17.00;68.60;;;;;;5073621;28;19952;-89
2022/04/16 07:21:19;;;;;;;;;;;17.10;68.60;;;;;;5076541;28;19912;-89
2022/04/16 07:23:45;;;;;;;;;;;17.30;67.60;;;;;;5075226;28;19919;-89
2022/04/16 07:26:10;;;;;;;;;;;17.40;67.70;;;;;;5073746;28;19920;-89
2022/04/16 07:28:36;;;;;;;;;;;17.50;67.90;;;;;;5070196;28;20399;-89
2022/04/16 07:31:02;;;;;;;;;;;17.80;68.10;;;;;;5072695;28;20450;-90
2022/04/16 07:33:27;;;;;;;;;;;17.90;66.10;;;;;;5073623;28;20373;-90
2022/04/16 07:35:53;;;;;;;;;;;18.00;65.40;;;;;;5073766;28;19916;-90
2022/04/16 07:38:18;;;;;;;;;;;18.10;65.60;;;;;;5075490;28;20293;-89
2022/04/16 07:40:44;;;;;;;;;;;18.30;65.50;;;;;;5076131;28;20366;-89
2022/04/16 07:43:09;;;;;;;;;;;18.50;66.60;;;;;;5068385;28;19982;-90
2022/04/16 07:45:35;;;;;;;;;;;18.70;66.20;;;;;;5068978;28;19999;-89
2022/04/16 07:48:01;;;;;;;;;;;18.80;63.60;;;;;;5072685;28;19921;-89
2022/04/16 07:50:26;;;;;;;;;;;18.80;63.30;;;;;;5069722;28;19996;-90
2022/04/16 07:52:52;;;;;;;;;;;18.80;62.00;;;;;;5074368;28;19912;-89
2022/04/16 07:55:17;;;;;;;;;;;18.80;62.60;;;;;;5072837;28;19913;-90
2022/04/16 07:57:43;;;;;;;;;;;18.80;61.20;;;;;;5072740;28;20031;-89
2022/04/16 08:00:09;;;;;;;;;;;18.90;62.20;;;;;;5071463;28;19912;-90
2022/04/16 08:02:35;;;;;;;;;;;18.90;62.60;;;;;;5072736;28;19935;-88
2022/04/16 08:05:01;;;;;;;;;;;19.00;62.30;;;;;;5073694;28;20305;-89
2022/04/16 08:07:26;;;;;;;;;;;19.10;62.60;;;;;;5074714;28;19921;-89
2022/04/16 08:09:52;;;;;;;;;;;19.20;62.70;;;;;;5072158;28;19913;-89
2022/04/16 08:12:17;;;;;;;;;;;19.30;62.20;;;;;;5072763;28;19916;-89
2022/04/16 08:14:43;;;;;;;;;;;19.30;62.10;;;;;;5073629;28;20015;-89
2022/04/16 08:17:08;;;;;;;;;;;19.40;60.80;;;;;;5069151;28;19921;-89
2022/04/16 08:19:34;;;;;;;;;;;19.40;60.20;;;;;;5065000;28;19913;-89
2022/04/16 08:21:59;;;;;;;;;;;19.40;59.20;;;;;;5060411;28;20332;-89
2022/04/16 08:26:53;;;;;;;;;;;19.60;60.30;;;;;;5062224;28;19917;-89
2022/04/16 08:29:19;;;;;;;;;;;19.70;59.80;;;;;;5057659;28;20440;-89
2022/04/16 08:31:44;;;;;;;;;;;19.80;57.30;;;;;;5059136;28;20327;-89
2022/04/16 08:34:10;;;;;;;;;;;19.70;59.00;;;;;;5057516;28;19924;-89
2022/04/16 08:36:36;;;;;;;;;;;19.80;58.20;;;;;;5055376;28;19919;-89
2022/04/16 08:39:02;;;;;;;;;;;19.80;56.70;;;;;;5057975;28;19913;-89
2022/04/16 08:41:28;;;;;;;;;;;19.80;58.40;;;;;;5055347;28;19959;-89
2022/04/16 08:43:56;;;;;;;;;;;20.00;58.10;;;;;;5062555;28;19913;-89
2022/04/16 08:46:22;;;;;;;;;;;20.10;57.70;;;;;;5056605;28;20011;-89
2022/04/16 08:48:48;;;;;;;;;;;20.10;57.40;;;;;;5058489;28;19971;-89
2022/04/16 08:51:15;;;;;;;;;;;20.10;58.30;;;;;;5057893;28;19913;-89
2022/04/16 08:53:41;;;;;;;;;;;20.20;57.90;;;;;;5055032;28;20370;-89
2022/04/16 08:56:06;;;;;;;;;;;20.30;58.60;;;;;;5060891;28;19913;-89
2022/04/16 08:58:32;;;;;;;;;;;20.30;58.30;;;;;;5054100;28;19917;-90
2022/04/16 09:00:59;;;;;;;;;;;20.30;57.90;;;;;;5055026;28;19951;-89
2022/04/16 09:03:38;;;;;;;;;;;20.30;58.50;;;;;;5054639;28;19913;-90
2022/04/16 09:06:04;;;;;;;;;;;20.30;57.50;;;;;;5041524;28;19958;-89
2022/04/16 09:08:31;;;;;;;;;;;20.30;60.70;;;;;;5055308;28;19928;-90
2022/04/16 09:11:07;;;;;;;;;;;20.40;56.90;;;;;;5054514;28;19912;-89
2022/04/16 09:13:32;;;;;;;;;;;20.50;56.60;;;;;;5058161;28;19944;-89
2022/04/16 09:16:04;;;;;;;;;;;20.60;56.00;;;;;;5055578;28;19959;-89
2022/04/16 09:18:30;;;;;;;;;;;20.60;56.20;;;;;;5064404;28;19916;-89
2022/04/16 09:20:55;;;;;;;;;;;20.70;55.80;;;;;;5060485;28;19913;-90
2022/04/16 09:23:22;;;;;;;;;;;20.80;56.90;;;;;;5060410;28;19913;-89
2022/04/16 09:25:48;;;;;;;;;;;20.80;57.80;;;;;;5057551;28;19916;-90
2022/04/16 09:28:14;;;;;;;;;;;20.90;56.40;;;;;;5054558;28;19924;-89
2022/04/16 09:30:47;;;;;;;;;;;20.90;52.20;;;;;;5056695;28;19920;-89
2022/04/16 09:33:13;;;;;;;;;;;20.80;51.40;;;;;;5054385;28;19925;-89
2022/04/16 09:35:39;;;;;;;;;;;20.80;54.10;;;;;;5065453;28;20286;-89
2022/04/16 09:38:06;;;;;;;;;;;20.80;54.20;;;;;;5057159;28;20381;-89
2022/04/16 09:40:33;;;;;;;;;;;20.90;52.40;;;;;;5067265;28;19912;-89
2022/04/16 09:43:00;;;;;;;;;;;21.00;51.10;;;;;;5055837;28;19916;-89
2022/04/16 09:45:27;;;;;;;;;;;21.00;50.50;;;;;;5054027;28;19919;-89
2022/04/16 09:47:52;;;;;;;;;;;21.00;49.40;;;;;;5052947;28;20019;-90
2022/04/16 09:50:19;;;;;;;;;;;21.20;49.60;;;;;;5060071;28;20003;-90
2022/04/16 09:52:48;;;;;;;;;;;21.30;50.00;;;;;;5057772;28;19913;-89
2022/04/16 09:55:14;;;;;;;;;;;21.30;50.30;;;;;;5056812;28;20358;-89
2022/04/16 09:57:40;;;;;;;;;;;21.30;49.20;;;;;;5053713;28;19916;-89
2022/04/16 10:00:06;;;;;;;;;;;21.20;50.30;;;;;;5056570;28;19919;-89
2022/04/16 10:02:34;;;;;;;;;;;20.90;48.50;;;;;;5057440;28;19983;-89
2022/04/16 10:05:00;;;;;;;;;;;20.80;48.60;;;;;;5057885;28;19917;-89
2022/04/16 10:07:25;;;;;;;;;;;20.70;49.50;;;;;;5066884;28;19927;-89
2022/04/16 10:09:53;;;;;;;;;;;20.80;49.80;;;;;;5067627;28;19912;-89
2022/04/16 10:14:56;;;;;;;;;;;21.00;49.80;;;;;;5054047;28;19909;-89
2022/04/16 10:17:24;;;;;;;;;;;21.10;48.70;;;;;;5053723;28;19908;-89
2022/04/16 10:19:49;;;;;;;;;;;21.20;48.40;;;;;;5052376;28;19909;-89
2022/04/16 10:22:23;;;;;;;;;;;21.30;50.10;;;;;;5053558;28;19915;-89
2022/04/16 10:24:49;;;;;;;;;;;21.50;47.60;;;;;;5053605;28;19999;-89
2022/04/16 10:27:22;;;;;;;;;;;21.70;46.80;;;;;;5053451;28;19913;-89
2022/04/16 10:29:48;;;;;;;;;;;21.80;47.20;;;;;;5053481;28;19909;-89
2022/04/16 10:32:15;;;;;;;;;;;21.90;48.40;;;;;;5053583;28;19920;-89
2022/04/16 10:34:42;;;;;;;;;;;22.00;46.20;;;;;;5053412;28;19916;-90
2022/04/16 10:37:08;;;;;;;;;;;22.20;46.90;;;;;;5052061;28;20336;-89
2022/04/16 10:39:35;;;;;;;;;;;22.30;46.90;;;;;;5053351;28;20004;-90
2022/04/16 10:42:02;;;;;;;;;;;22.40;45.40;;;;;;5052666;28;19920;-89
2022/04/16 10:44:29;;;;;;;;;;;22.50;47.90;;;;;;5053290;28;19909;-90
2022/04/16 10:46:55;;;;;;;;;;;22.70;45.20;;;;;;5053118;28;19952;-89
2022/04/16 10:49:23;;;;;;;;;;;22.80;43.80;;;;;;5053232;28;19940;-89
2022/04/16 10:51:50;;;;;;;;;;;23.00;43.00;;;;;;5053175;28;20432;-89
2022/04/16 10:54:27;;;;;;;;;;;23.30;41.20;;;;;;5053156;28;20007;-89
2022/04/16 10:56:53;;;;;;;;;;;23.20;41.90;;;;;;5053134;28;19909;-89
2022/04/16 10:59:34;;;;;;;;;;;23.20;40.30;;;;;;5053650;28;20362;-89
2022/04/16 11:01:59;;;;;;;;;;;23.30;40.50;;;;;;5053042;28;19909;-89
2022/04/16 11:04:25;;;;;;;;;;;23.30;39.60;;;;;;5053009;28;19909;-89
2022/04/16 11:06:56;;;;;;;;;;;23.70;40.30;;;;;;5052979;28;19935;-89
2022/04/16 11:09:22;;;;;;;;;;;23.90;39.50;;;;;;5052686;28;19928;-89
2022/04/16 11:11:51;;;;;;;;;;;24.20;38.60;;;;;;5052692;28;19966;-89
2022/04/16 11:14:17;;;;;;;;;;;24.40;38.00;;;;;;5052863;28;19959;-89
2022/04/16 11:16:46;;;;;;;;;;;24.40;36.20;;;;;;5052923;28;20002;-89
2022/04/16 11:19:18;;;;;;;;;;;24.70;38.20;;;;;;5052766;28;20370;-89
2022/04/16 11:21:44;;;;;;;;;;;24.60;35.90;;;;;;5052842;28;19913;-89
2022/04/16 11:24:10;;;;;;;;;;;24.40;35.40;;;;;;5052857;28;20007;-89
2022/04/16 11:34:52;;;;;;;;;;;24.50;35.60;;;;;;5052693;28;20329;-89
2022/04/16 11:37:18;;;;;;;;;;;24.60;34.50;;;;;;5052748;28;19909;-89
2022/04/16 11:39:46;;;;;;;;;;;24.70;34.80;;;;;;5052711;28;19912;-89
2022/04/16 11:42:11;;;;;;;;;;;24.50;35.30;;;;;;5052308;28;19919;-90
2022/04/16 11:44:43;;;;;;;;;;;24.50;34.50;;;;;;5052634;28;19954;-89
2022/04/16 11:47:09;;;;;;;;;;;24.50;35.70;;;;;;5052538;28;19909;-89
2022/04/16 11:49:35;;;;;;;;;;;24.50;36.00;;;;;;5052646;28;19996;-89
2022/04/16 11:52:01;;;;;;;;;;;24.30;35.00;;;;;;5052374;28;19913;-89
2022/04/16 11:54:29;;;;;;;;;;;24.30;36.20;;;;;;5053521;28;19908;-89
2022/04/16 11:56:55;;;;;;;;;;;24.30;36.50;;;;;;5056334;28;19908;-90
2022/04/16 11:59:25;;;;;;;;;;;24.50;35.50;;;;;;5056280;28;19916;-90
2022/04/16 12:02:20;;;;;;;;;;;24.90;37.20;;;;;;5056141;28;19909;-90
2022/04/16 12:04:45;;;;;;;;;;;25.20;36.10;;;;;;5055521;28;19948;-89
2022/04/16 12:07:16;;;;;;;;;;;25.20;35.10;;;;;;5055713;28;19944;-89
2022/04/16 12:09:45;;;;;;;;;;;25.60;34.80;;;;;;5055712;28;19913;-89
2022/04/16 12:12:17;;;;;;;;;;;25.70;32.80;;;;;;5055758;28;20383;-90
2022/04/16 12:14:50;;;;;;;;;;;25.70;32.60;;;;;;5055961;28;19948;-90
2022/04/16 12:17:22;;;;;;;;;;;26.00;32.30;;;;;;5055946;28;19909;-89
2022/04/16 12:20:11;;;;;;;;;;;25.90;32.00;;;;;;5055868;28;19909;-89
2022/04/16 12:22:47;;;;;;;;;;;25.50;31.40;;;;;;5053051;28;19931;-89
2022/04/16 12:25:13;;;;;;;;;;;25.60;33.90;;;;;;5055817;28;20371;-89
2022/04/16 12:27:43;;;;;;;;;;;25.70;32.00;;;;;;5055694;28;19913;-90
2022/04/16 12:30:11;;;;;;;;;;;25.60;32.90;;;;;;5055717;28;19909;-90
2022/04/16 12:32:36;;;;;;;;;;;26.10;31.00;;;;;;5053984;28;20362;-90
2022/04/16 12:35:02;;;;;;;;;;;26.20;32.20;;;;;;5055433;28;19909;-90
2022/04/16 12:37:28;;;;;;;;;;;26.70;31.70;;;;;;5055445;28;19913;-90
2022/04/16 12:39:53;;;;;;;;;;;27.50;30.10;;;;;;5055468;28;20272;-90
2022/04/16 12:42:19;;;;;;;;;;;27.70;30.30;;;;;;5055194;28;19913;-90
2022/04/16 12:44:44;;;;;;;;;;;28.20;30.00;;;;;;5055347;28;19916;-90
2022/04/16 12:47:10;;;;;;;;;;;28.70;29.40;;;;;;5055339;28;19909;-90
2022/04/16 12:49:35;;;;;;;;;;;28.70;29.30;;;;;;5055016;28;20367;-89
2022/04/16 12:52:01;;;;;;;;;;;27.60;29.80;;;;;;5055296;28;20330;-89
2022/04/16 12:54:27;;;;;;;;;;;26.90;30.40;;;;;;5055321;28;19909;-89
2022/04/16 12:56:52;;;;;;;;;;;26.50;31.60;;;;;;5055456;28;20374;-90
2022/04/16 12:59:18;;;;;;;;;;;26.30;30.70;;;;;;5055206;28;20359;-90
2022/04/16 13:01:43;;;;;;;;;;;27.20;30.30;;;;;;5055118;28;19913;-90
2022/04/16 13:04:09;;;;;;;;;;;28.40;29.80;;;;;;5055122;28;19916;-90
2022/04/16 13:06:34;;;;;;;;;;;29.10;28.70;;;;;;5054818;28;19908;-90
2022/04/16 13:09:02;;;;;;;;;;;28.80;28.90;;;;;;5054812;28;20382;-89
2022/04/16 13:11:28;;;;;;;;;;;27.80;29.90;;;;;;5054727;28;19916;-89
2022/04/16 13:13:53;;;;;;;;;;;25.90;32.60;;;;;;5054950;28;20085;-89
2022/04/16 13:16:19;;;;;;;;;;;24.70;35.40;;;;;;5054893;28;19958;-89
2022/04/16 13:18:44;;;;;;;;;;;23.70;37.70;;;;;;5054820;28;19909;-89
2022/04/16 13:21:10;;;;;;;;;;;22.90;39.30;;;;;;5054831;28;19913;-89
2022/04/16 13:23:35;;;;;;;;;;;22.20;42.00;;;;;;5054739;28;19941;-89
2022/04/16 13:26:01;;;;;;;;;;;21.50;42.90;;;;;;5054320;28;20412;-89
2022/04/16 13:28:27;;;;;;;;;;;20.70;45.50;;;;;;5054524;28;20362;-89
2022/04/16 13:30:53;;;;;;;;;;;20.30;50.70;;;;;;5054272;28;19909;-89
2022/04/16 13:33:19;;;;;;;;;;;20.30;51.50;;;;;;5054712;28;19939;-89
2022/04/16 13:35:45;;;;;;;;;;;20.30;49.70;;;;;;5054435;28;19910;-89
2022/04/16 13:38:10;;;;;;;;;;;20.30;49.70;;;;;;5054499;28;19917;-89
2022/04/16 13:43:20;;;;;;;;;;;20.30;51.40;;;;;;5053750;28;20000;-89
2022/04/16 13:45:45;;;;;;;;;;;20.40;50.10;;;;;;5054226;28;19945;-89
2022/04/16 13:48:11;;;;;;;;;;;20.80;50.20;;;;;;5054438;28;19913;-89
2022/04/16 13:50:36;;;;;;;;;;;21.00;51.30;;;;;;5054452;28;19991;-89
2022/04/16 13:53:02;;;;;;;;;;;21.10;47.80;;;;;;5054180;28;19952;-89
2022/04/16 13:55:28;;;;;;;;;;;21.10;48.10;;;;;;5054105;28;19916;-89
2022/04/16 13:57:53;;;;;;;;;;;20.80;48.30;;;;;;5054025;28;19970;-89
2022/04/16 14:00:19;;;;;;;;;;;20.90;47.00;;;;;;5054065;28;19999;-90
2022/04/16 14:02:45;;;;;;;;;;;21.00;46.40;;;;;;5053982;28;20003;-89
2022/04/16 14:07:54;;;;;;;;;;;20.70;46.40;;;;;;5053639;28;19947;-89
2022/04/16 14:10:20;;;;;;;;;;;20.90;47.80;;;;;;5053357;28;20378;-89
2022/04/16 14:12:46;;;;;;;;;;;21.30;46.10;;;;;;5053565;28;19935;-89
2022/04/16 14:15:11;;;;;;;;;;;21.40;46.70;;;;;;5053609;28;19913;-89
2022/04/16 14:17:37;;;;;;;;;;;21.50;45.30;;;;;;5053216;28;19909;-89
2022/04/16 14:20:05;;;;;;;;;;;21.40;46.90;;;;;;5053430;28;19923;-89
2022/04/16 14:22:31;;;;;;;;;;;21.30;47.50;;;;;;5052280;28;20287;-90
2022/04/16 14:24:57;;;;;;;;;;;21.10;48.60;;;;;;5053656;28;20005;-89
2022/04/16 14:27:23;;;;;;;;;;;21.00;47.30;;;;;;5053088;28;20011;-90
2022/04/16 14:29:50;;;;;;;;;;;20.80;47.70;;;;;;5053542;28;19919;-89
2022/04/16 14:32:16;;;;;;;;;;;20.60;48.60;;;;;;5053300;28;20372;-90
2022/04/16 14:34:42;;;;;;;;;;;20.30;49.70;;;;;;5053677;28;19988;-90
2022/04/16 14:37:07;;;;;;;;;;;20.20;50.60;;;;;;5053445;28;20347;-89
2022/04/16 14:39:34;;;;;;;;;;;20.00;52.40;;;;;;5053520;28;20378;-90
2022/04/16 14:42:00;;;;;;;;;;;20.00;52.50;;;;;;5053239;28;19909;-89
2022/04/16 14:44:25;;;;;;;;;;;20.00;51.40;;;;;;5053323;28;19909;-89
2022/04/16 14:46:51;;;;;;;;;;;20.00;53.00;;;;;;5053280;28;19909;-89
2022/04/16 14:49:17;;;;;;;;;;;20.10;52.10;;;;;;5053150;28;19963;-89